createdAt,value
2022-09-23T00:01:12.665Z,59.26
2022-09-23T00:03:42.074Z,59.43
2022-09-23T00:06:11.801Z,59.84
2022-09-23T00:08:40.023Z,58.41
2022-09-23T00:11:17.369Z,58.65
2022-09-23T00:13:46.843Z,58.41
2022-09-23T00:16:17.065Z,58.68
2022-09-23T00:18:44.416Z,59.08
2022-09-23T00:21:13.856Z,59.51
2022-09-23T00:23:42.955Z,59.72
2022-09-23T00:26:12.495Z,59.68
2022-09-23T00:28:40.560Z,59.11
2022-09-23T00:31:09.889Z,60.09
2022-09-23T00:33:36.843Z,60.36
2022-09-23T00:36:07.075Z,60.18
2022-09-23T00:38:34.248Z,59.92
2022-09-23T00:41:02.256Z,60.04
2022-09-23T00:43:38.186Z,59.56
2022-09-23T00:46:07.926Z,59.97
2022-09-23T00:48:35.671Z,60.19
2022-09-23T00:51:02.330Z,60.40
2022-09-23T00:53:29.348Z,60.17
2022-09-23T00:56:04.167Z,59.90
2022-09-23T00:58:34.263Z,60.17
2022-09-23T01:01:02.356Z,60.12
2022-09-23T01:03:29.605Z,59.36
2022-09-23T01:05:57.306Z,59.83
2022-09-23T01:08:25.156Z,60.00
2022-09-23T01:10:57.820Z,60.08
2022-09-23T01:13:52.001Z,60.09
2022-09-23T01:16:45.426Z,59.92
2022-09-23T01:19:30.870Z,60.21
2022-09-23T01:22:06.697Z,60.13
2022-09-23T01:24:59.640Z,59.62
2022-09-23T01:27:55.899Z,59.03
2022-09-23T01:30:44.107Z,59.50
2022-09-23T01:33:29.598Z,59.62
2022-09-23T01:36:13.372Z,59.98
2022-09-23T01:38:43.865Z,59.96
2022-09-23T01:41:30.070Z,59.28
2022-09-23T01:44:08.780Z,58.87
2022-09-23T01:46:41.692Z,58.24
2022-09-23T01:49:25.318Z,57.58
2022-09-23T01:52:03.996Z,58.10
2022-09-23T01:54:41.064Z,56.72
2022-09-23T01:57:31.915Z,57.58
2022-09-23T02:00:11.750Z,58.71
2022-09-23T02:02:49.685Z,58.45
2022-09-23T02:05:26.096Z,58.51
2022-09-23T02:08:14.004Z,58.62
2022-09-23T02:10:56.480Z,58.80
2022-09-23T02:13:40.032Z,59.07
2022-09-23T02:16:21.840Z,58.77
2022-09-23T02:18:58.174Z,58.72
2022-09-23T02:21:33.905Z,58.66
2022-09-23T02:24:34.867Z,58.50
2022-09-23T02:27:30.379Z,59.48
2022-09-23T02:30:17.203Z,60.07
2022-09-23T02:33:07.924Z,59.66
2022-09-23T02:35:44.167Z,59.80
2022-09-23T02:38:20.636Z,60.22
2022-09-23T02:40:52.986Z,60.53
2022-09-23T02:43:24.048Z,61.37
2022-09-23T02:45:52.333Z,61.12
2022-09-23T02:48:27.097Z,61.32
2022-09-23T02:50:54.465Z,61.90
2022-09-23T02:53:24.213Z,61.47
2022-09-23T02:55:51.169Z,61.32
2022-09-23T02:58:17.946Z,60.55
2022-09-23T03:01:11.604Z,60.63
2022-09-23T03:03:44.302Z,61.37
2022-09-23T03:06:47.741Z,61.42
2022-09-23T03:09:28.001Z,60.73
2022-09-23T03:12:06.068Z,60.28
2022-09-23T03:14:40.281Z,59.76
2022-09-23T03:17:48.886Z,59.77
2022-09-23T03:20:57.891Z,60.05
2022-09-23T03:23:31.372Z,61.49
2022-09-23T03:26:02.478Z,61.80
2022-09-23T03:28:29.770Z,62.09
2022-09-23T03:31:00.106Z,61.81
2022-09-23T03:33:28.993Z,61.87
2022-09-23T03:36:23.927Z,61.33
2022-09-23T03:38:54.787Z,62.37
2022-09-23T03:41:33.169Z,63.72
2022-09-23T03:44:00.169Z,62.82
2022-09-23T03:46:30.073Z,62.54
2022-09-23T03:49:06.556Z,62.63
2022-09-23T03:51:33.171Z,62.35
2022-09-23T03:53:59.801Z,62.55
2022-09-23T03:56:26.367Z,62.04
2022-09-23T03:58:53.041Z,61.54
2022-09-23T04:01:19.666Z,62.10
2022-09-23T04:03:46.465Z,62.37
2022-09-23T04:06:13.425Z,62.22
2022-09-23T04:08:40.046Z,61.58
2022-09-23T04:11:06.851Z,61.14
2022-09-23T04:13:33.767Z,62.24
2022-09-23T04:16:00.586Z,61.52
2022-09-23T04:18:27.289Z,61.80
2022-09-23T04:20:58.833Z,62.03
2022-09-23T04:23:27.319Z,61.76
2022-09-23T04:25:54.020Z,62.74
2022-09-23T04:28:21.524Z,63.19
2022-09-23T04:30:49.046Z,62.14
2022-09-23T04:33:17.019Z,62.45
2022-09-23T04:35:43.558Z,61.82
2022-09-23T04:38:13.325Z,61.12
2022-09-23T04:40:40.036Z,61.30
2022-09-23T04:43:10.547Z,61.53
2022-09-23T04:45:39.520Z,63.05
2022-09-23T04:48:06.087Z,63.67
2022-09-23T04:50:33.998Z,63.25
2022-09-23T04:53:01.915Z,64.29
2022-09-23T04:55:28.888Z,64.18
2022-09-23T04:57:55.637Z,63.85
2022-09-23T05:00:23.407Z,63.69
2022-09-23T05:02:50.879Z,63.93
2022-09-23T05:05:23.400Z,63.22
2022-09-23T05:07:51.092Z,63.26
2022-09-23T05:10:17.923Z,62.55
2022-09-23T05:12:44.598Z,62.98
2022-09-23T05:15:11.455Z,62.31
2022-09-23T05:17:38.043Z,63.16
2022-09-23T05:20:05.431Z,62.72
2022-09-23T05:22:32.307Z,63.66
2022-09-23T05:25:00.369Z,64.46
2022-09-23T05:27:27.334Z,64.19
2022-09-23T05:29:54.021Z,63.67
2022-09-23T05:32:21.301Z,63.65
2022-09-23T05:34:47.926Z,63.44
2022-09-23T05:37:14.480Z,63.20
2022-09-23T05:39:41.068Z,63.45
2022-09-23T05:42:09.364Z,62.80
2022-09-23T05:44:36.082Z,64.01
2022-09-23T05:47:02.899Z,63.30
2022-09-23T05:49:42.841Z,61.92
2022-09-23T05:52:17.260Z,60.89
2022-09-23T05:54:43.846Z,61.17
2022-09-23T05:57:10.437Z,60.75
2022-09-23T05:59:38.142Z,60.52
2022-09-23T06:02:04.964Z,60.23
2022-09-23T06:04:31.657Z,59.68
2022-09-23T06:07:02.779Z,59.04
2022-09-23T06:09:34.105Z,57.97
2022-09-23T06:12:03.820Z,57.06
2022-09-23T06:14:30.401Z,57.98
2022-09-23T06:16:56.961Z,57.01
2022-09-23T06:19:23.589Z,57.55
2022-09-23T06:21:50.191Z,57.10
2022-09-23T06:24:21.357Z,57.33
2022-09-23T06:26:49.571Z,57.30
2022-09-23T06:29:16.219Z,57.08
2022-09-23T06:31:43.531Z,57.03
2022-09-23T06:34:14.554Z,57.10
2022-09-23T06:36:46.139Z,57.08
2022-09-23T06:39:14.702Z,55.83
2022-09-23T06:41:41.407Z,56.80
2022-09-23T06:44:08.078Z,55.84
2022-09-23T06:46:37.027Z,56.94
2022-09-23T06:49:03.771Z,55.73
2022-09-23T06:51:30.477Z,55.49
2022-09-23T06:53:56.995Z,56.43
2022-09-23T06:56:23.810Z,56.34
2022-09-23T06:58:52.261Z,55.38
2022-09-23T07:01:19.825Z,55.57
2022-09-23T07:03:49.943Z,55.05
2022-09-23T07:06:17.295Z,54.32
2022-09-23T07:08:47.089Z,54.95
2022-09-23T07:11:15.449Z,54.68
2022-09-23T07:13:43.010Z,53.51
2022-09-23T07:16:11.717Z,54.59
2022-09-23T07:18:39.004Z,55.19
2022-09-23T07:21:15.481Z,55.96
2022-09-23T07:23:47.444Z,55.59
2022-09-23T07:26:15.786Z,56.57
2022-09-23T07:28:42.777Z,53.49
2022-09-23T07:31:12.351Z,51.92
2022-09-23T07:33:43.839Z,53.58
2022-09-23T07:36:14.137Z,54.50
2022-09-23T07:38:45.119Z,54.33
2022-09-23T07:41:16.058Z,53.36
2022-09-23T07:43:44.186Z,53.01
2022-09-23T07:46:15.111Z,52.61
2022-09-23T07:48:42.955Z,50.50
2022-09-23T07:51:12.676Z,50.54
2022-09-23T07:53:39.531Z,49.55
2022-09-23T07:56:06.755Z,51.01
2022-09-23T07:58:34.781Z,50.79
2022-09-23T08:01:06.819Z,50.65
2022-09-23T08:03:33.702Z,49.14
2022-09-23T08:06:08.087Z,49.55
2022-09-23T08:08:35.686Z,51.65
2022-09-23T08:11:07.749Z,51.95
2022-09-23T08:13:34.594Z,47.17
2022-09-23T08:16:01.562Z,46.93
2022-09-23T08:18:28.475Z,48.56
2022-09-23T08:20:55.079Z,49.80
2022-09-23T08:23:21.834Z,47.33
2022-09-23T08:25:48.517Z,50.25
2022-09-23T08:28:18.531Z,49.37
2022-09-23T08:30:49.002Z,46.19
2022-09-23T08:33:20.967Z,45.13
2022-09-23T08:35:49.319Z,45.86
2022-09-23T08:38:16.543Z,46.28
2022-09-23T08:40:47.513Z,45.33
2022-09-23T08:43:33.099Z,45.89
2022-09-23T08:46:06.254Z,48.21
2022-09-23T08:48:38.517Z,46.94
2022-09-23T08:51:11.129Z,46.56
2022-09-23T08:53:39.281Z,46.10
2022-09-23T08:56:26.210Z,43.81
2022-09-23T08:59:29.155Z,46.81
2022-09-23T09:02:00.328Z,46.56
2022-09-23T09:04:39.361Z,46.50
2022-09-23T09:07:35.078Z,45.24
2022-09-23T09:10:18.721Z,45.39
2022-09-23T09:12:48.251Z,44.57
2022-09-23T09:15:26.680Z,44.74
2022-09-23T09:18:11.322Z,40.90
2022-09-23T09:20:48.978Z,42.00
2022-09-23T09:23:32.377Z,41.21
2022-09-23T09:26:01.952Z,41.10
2022-09-23T09:28:35.779Z,42.16
2022-09-23T09:31:16.435Z,43.32
2022-09-23T09:33:58.361Z,43.47
2022-09-23T09:36:45.106Z,40.64
2022-09-23T09:39:13.370Z,40.38
2022-09-23T09:41:48.700Z,41.99
2022-09-23T09:44:37.033Z,41.75
2022-09-23T09:47:27.054Z,41.47
2022-09-23T09:50:09.060Z,41.54
2022-09-23T09:52:40.706Z,40.57
2022-09-23T09:55:13.473Z,39.38
2022-09-23T09:57:44.143Z,41.10
2022-09-23T10:00:46.102Z,41.09
2022-09-23T10:03:20.339Z,36.65
2022-09-23T10:05:49.865Z,38.02
2022-09-23T10:08:37.797Z,39.03
2022-09-23T10:11:18.909Z,39.48
2022-09-23T10:14:14.277Z,40.09
2022-09-23T10:16:42.095Z,38.97
2022-09-23T10:19:18.549Z,39.81
2022-09-23T10:21:52.771Z,37.69
2022-09-23T10:24:25.951Z,36.91
2022-09-23T10:27:00.903Z,35.46
2022-09-23T10:29:39.268Z,38.03
2022-09-23T10:32:27.446Z,38.94
2022-09-23T10:35:09.256Z,36.27
2022-09-23T10:37:40.343Z,37.02
2022-09-23T10:40:37.893Z,34.92
2022-09-23T10:43:49.160Z,34.82
2022-09-23T10:46:39.085Z,33.11
2022-09-23T10:49:26.381Z,32.85
2022-09-23T10:51:56.022Z,32.74
2022-09-23T10:54:32.526Z,32.17
2022-09-23T10:57:24.412Z,31.51
2022-09-23T11:00:23.591Z,30.85
2022-09-23T11:03:33.802Z,29.85
2022-09-23T11:06:05.478Z,30.75
2022-09-23T11:08:59.899Z,29.04
2022-09-23T11:11:53.202Z,28.65
2022-09-23T11:14:25.678Z,29.68
2022-09-23T11:17:25.995Z,28.46
2022-09-23T11:20:16.945Z,28.37
2022-09-23T11:22:53.277Z,28.38
2022-09-23T11:25:39.581Z,28.24
2022-09-23T11:28:12.064Z,28.63
2022-09-23T11:30:46.243Z,28.19
2022-09-23T11:34:03.737Z,27.62
2022-09-23T11:36:52.345Z,27.11
2022-09-23T11:39:29.810Z,27.39
2022-09-23T11:41:59.362Z,27.25
2022-09-23T11:44:38.210Z,27.05
2022-09-23T11:47:10.870Z,26.76
2022-09-23T11:49:43.019Z,27.04
2022-09-23T11:52:19.709Z,26.71
2022-09-23T11:54:54.663Z,26.26
2022-09-23T11:57:53.453Z,27.28
2022-09-23T12:00:26.710Z,27.36
2022-09-23T12:03:18.594Z,28.09
2022-09-23T12:05:51.396Z,27.70
2022-09-23T12:08:25.146Z,28.50
2022-09-23T12:11:01.692Z,27.76
2022-09-23T12:13:40.783Z,28.84
2022-09-23T12:16:28.825Z,28.64
2022-09-23T12:19:04.563Z,28.75
2022-09-23T12:21:51.624Z,29.16
2022-09-23T12:24:52.491Z,30.27
2022-09-23T12:27:28.369Z,29.57
2022-09-23T12:30:01.584Z,30.07
2022-09-23T12:32:29.480Z,30.50
2022-09-23T12:34:56.608Z,30.68
2022-09-23T12:37:27.776Z,30.19
2022-09-23T12:39:59.762Z,30.06
2022-09-23T12:42:30.893Z,29.80
2022-09-23T12:45:32.760Z,30.29
2022-09-23T12:48:04.343Z,31.09
2022-09-23T12:50:51.151Z,30.68
2022-09-23T12:53:36.188Z,30.96
2022-09-23T12:56:16.046Z,31.55
2022-09-23T12:58:43.199Z,30.69
2022-09-23T13:01:17.228Z,30.66
2022-09-23T13:04:09.357Z,30.63
2022-09-23T13:07:06.636Z,30.53
2022-09-23T13:09:43.111Z,30.74
2022-09-23T13:12:39.195Z,30.28
2022-09-23T13:15:16.340Z,31.51
2022-09-23T13:17:43.130Z,31.59
2022-09-23T13:20:22.442Z,31.55
2022-09-23T13:22:49.505Z,31.91
2022-09-23T13:25:21.967Z,31.59
2022-09-23T13:27:54.374Z,31.18
2022-09-23T13:30:26.497Z,31.28
2022-09-23T13:33:14.280Z,31.27
2022-09-23T13:35:46.132Z,31.20
2022-09-23T13:38:27.008Z,30.83
2022-09-23T13:41:14.808Z,30.64
2022-09-23T13:43:43.065Z,30.99
2022-09-23T13:46:13.962Z,31.12
2022-09-23T13:48:44.346Z,30.93
2022-09-23T13:51:16.431Z,31.69
2022-09-23T13:53:43.049Z,31.50
2022-09-23T13:56:14.848Z,31.50
2022-09-23T13:58:42.083Z,31.11
2022-09-23T14:01:33.772Z,30.54
2022-09-23T14:04:02.443Z,31.06
2022-09-23T14:06:38.476Z,31.71
2022-09-23T14:09:06.490Z,31.08
2022-09-23T14:11:35.483Z,31.85
2022-09-23T14:14:07.734Z,32.01
2022-09-23T14:16:39.726Z,31.49
2022-09-23T14:19:09.371Z,32.04
2022-09-23T14:21:38.505Z,31.62
2022-09-23T14:24:11.162Z,31.76
2022-09-23T14:26:39.548Z,30.99
2022-09-23T14:29:12.117Z,31.94
2022-09-23T14:31:39.519Z,31.85
2022-09-23T14:34:06.281Z,32.10
2022-09-23T14:36:55.014Z,32.14
2022-09-23T14:39:22.793Z,32.33
2022-09-23T14:41:49.649Z,32.79
2022-09-23T14:44:23.160Z,32.26
2022-09-23T14:46:58.163Z,32.30
2022-09-23T14:49:25.267Z,33.06
2022-09-23T14:52:06.897Z,33.41
2022-09-23T14:54:52.164Z,32.32
2022-09-23T14:57:18.666Z,32.41
2022-09-23T14:59:59.209Z,32.37
2022-09-23T15:02:34.821Z,32.92
2022-09-23T15:05:30.446Z,32.30
2022-09-23T15:08:01.029Z,32.71
2022-09-23T15:10:37.487Z,33.06
2022-09-23T15:13:06.325Z,32.91
2022-09-23T15:15:33.342Z,33.13
2022-09-23T15:18:08.722Z,33.25
2022-09-23T15:20:36.092Z,32.88
2022-09-23T15:23:03.278Z,33.45
2022-09-23T15:25:40.763Z,32.72
2022-09-23T15:28:15.295Z,33.51
2022-09-23T15:30:42.051Z,34.38
2022-09-23T15:33:13.291Z,34.75
2022-09-23T15:35:45.457Z,33.69
2022-09-23T15:38:12.306Z,32.99
2022-09-23T15:43:21.505Z,33.38
2022-09-23T15:46:08.152Z,33.46
2022-09-23T15:48:43.302Z,33.59
2022-09-23T15:51:14.838Z,34.02
2022-09-23T15:53:41.391Z,33.92
2022-09-23T15:56:07.972Z,34.36
2022-09-23T15:58:34.814Z,33.53
2022-09-23T16:01:01.761Z,33.69
2022-09-23T16:03:29.035Z,34.04
2022-09-23T16:06:01.098Z,34.09
2022-09-23T16:08:29.459Z,34.50
2022-09-23T16:10:56.709Z,34.14
2022-09-23T16:13:23.351Z,34.26
2022-09-23T16:15:50.228Z,34.70
2022-09-23T16:18:17.189Z,34.47
2022-09-23T16:20:45.726Z,34.36
2022-09-23T16:23:18.712Z,34.97
2022-09-23T16:25:45.312Z,34.66
2022-09-23T16:28:11.846Z,34.77
2022-09-23T16:30:38.426Z,34.69
2022-09-23T16:33:05.064Z,35.19
2022-09-23T16:35:33.658Z,34.94
2022-09-23T16:38:00.476Z,34.97
2022-09-23T16:40:27.397Z,35.05
2022-09-23T16:42:55.911Z,35.29
2022-09-23T16:45:23.320Z,35.64
2022-09-23T16:47:51.526Z,35.65
2022-09-23T16:50:22.673Z,36.00
2022-09-23T16:52:56.205Z,36.10
2022-09-23T16:55:26.087Z,36.60
2022-09-23T16:57:54.127Z,36.57
2022-09-23T17:03:14.508Z,37.73
2022-09-23T17:05:41.047Z,37.65
2022-09-23T17:08:07.796Z,37.48
2022-09-23T17:10:34.433Z,37.40
2022-09-23T17:13:01.085Z,37.84
2022-09-23T17:15:27.674Z,38.11
2022-09-23T17:17:55.651Z,38.60
2022-09-23T17:20:22.397Z,38.60
2022-09-23T17:22:49.031Z,38.68
2022-09-23T17:25:15.882Z,38.90
2022-09-23T17:27:42.822Z,39.03
2022-09-23T17:30:10.213Z,38.94
2022-09-23T17:32:38.231Z,39.13
2022-09-23T17:35:05.361Z,39.55
2022-09-23T17:37:33.035Z,40.01
2022-09-23T17:40:00.082Z,39.53
2022-09-23T17:42:27.697Z,39.56
2022-09-23T17:44:56.254Z,39.35
2022-09-23T17:47:23.299Z,39.51
2022-09-23T17:49:49.967Z,39.23
2022-09-23T17:52:19.636Z,39.20
2022-09-23T17:54:46.462Z,39.47
2022-09-23T17:57:13.021Z,39.89
2022-09-23T17:59:39.844Z,39.81
2022-09-23T18:02:06.519Z,39.46
2022-09-23T18:04:33.146Z,39.87
2022-09-23T18:06:59.753Z,39.45
2022-09-23T18:09:26.466Z,40.10
2022-09-23T18:11:53.181Z,40.09
2022-09-23T18:14:22.155Z,40.35
2022-09-23T18:16:52.704Z,40.48
2022-09-23T18:19:23.140Z,40.56
2022-09-23T18:21:52.431Z,40.90
2022-09-23T18:24:35.094Z,40.91
2022-09-23T18:27:01.858Z,40.82
2022-09-23T18:29:29.100Z,41.12
2022-09-23T18:31:55.940Z,40.90
2022-09-23T18:34:23.707Z,41.36
2022-09-23T18:36:51.715Z,41.46
2022-09-23T18:39:18.428Z,41.60
2022-09-23T18:41:45.052Z,41.50
2022-09-23T18:44:11.725Z,41.81
2022-09-23T18:46:38.379Z,41.66
2022-09-23T18:49:23.554Z,42.20
2022-09-23T18:51:55.917Z,42.34
2022-09-23T18:54:24.448Z,42.41
2022-09-23T18:56:54.353Z,42.65
2022-09-23T18:59:24.771Z,43.23
2022-09-23T19:01:54.908Z,43.21
2022-09-23T19:04:23.725Z,43.28
2022-09-23T19:06:50.431Z,43.51
2022-09-23T19:09:18.286Z,43.53
2022-09-23T19:11:45.493Z,43.62
2022-09-23T19:14:12.945Z,43.77
2022-09-23T19:16:40.710Z,44.15
2022-09-23T19:19:08.187Z,45.07
2022-09-23T19:21:35.189Z,45.04
2022-09-23T19:24:04.971Z,45.15
2022-09-23T19:26:35.055Z,45.36
2022-09-23T19:29:03.258Z,45.49
2022-09-23T19:31:39.222Z,45.64
2022-09-23T19:34:26.081Z,45.72
2022-09-23T19:36:57.497Z,45.59
2022-09-23T19:39:27.288Z,45.39
2022-09-23T19:41:55.856Z,45.62
2022-09-23T19:44:25.166Z,45.47
2022-09-23T19:46:56.343Z,45.65
2022-09-23T19:49:24.745Z,46.02
2022-09-23T19:51:51.687Z,45.67
2022-09-23T19:54:20.692Z,46.14
2022-09-23T19:56:48.759Z,46.02
2022-09-23T19:59:18.724Z,46.48
2022-09-23T20:01:46.479Z,46.71
2022-09-23T20:04:13.398Z,46.90
2022-09-23T20:06:41.070Z,47.17
2022-09-23T20:09:07.673Z,46.80
2022-09-23T20:11:34.660Z,46.96
2022-09-23T20:14:04.875Z,46.82
2022-09-23T20:16:36.856Z,46.92
2022-09-23T20:19:05.774Z,47.67
2022-09-23T20:21:33.849Z,47.78
2022-09-23T20:24:01.300Z,48.36
2022-09-23T20:26:46.583Z,47.52
2022-09-23T20:29:13.266Z,47.84
2022-09-23T20:31:42.777Z,47.99
2022-09-23T20:34:10.559Z,48.23
2022-09-23T20:36:38.981Z,48.92
2022-09-23T20:39:06.208Z,48.95
2022-09-23T20:41:36.740Z,48.95
2022-09-23T20:44:06.444Z,49.05
2022-09-23T20:46:34.273Z,48.88
2022-09-23T20:49:02.073Z,48.93
2022-09-23T20:51:28.859Z,48.95
2022-09-23T20:53:57.342Z,49.57
2022-09-23T20:56:25.198Z,49.86
2022-09-23T20:58:54.128Z,49.85
2022-09-23T21:01:21.825Z,49.63
2022-09-23T21:03:50.321Z,50.03
2022-09-23T21:06:19.052Z,50.87
2022-09-23T21:08:46.607Z,50.72
2022-09-23T21:11:17.954Z,50.84
2022-09-23T21:13:49.758Z,50.62
2022-09-23T21:16:18.570Z,50.96
2022-09-23T21:18:45.810Z,51.22
2022-09-23T21:21:14.126Z,51.48
2022-09-23T21:23:42.070Z,51.46
2022-09-23T21:26:13.905Z,51.47
2022-09-23T21:28:45.067Z,51.35
2022-09-23T21:31:22.637Z,50.94
2022-09-23T21:33:56.907Z,51.47
2022-09-23T21:36:24.846Z,51.40
2022-09-23T21:38:52.525Z,51.67
2022-09-23T21:41:19.759Z,51.68
2022-09-23T21:43:46.295Z,51.56
2022-09-23T21:46:15.528Z,51.39
2022-09-23T21:48:42.648Z,51.56
2022-09-23T21:51:20.973Z,50.47
2022-09-23T21:53:54.604Z,50.42
2022-09-23T21:56:29.410Z,51.04
2022-09-23T21:58:57.796Z,51.37
2022-09-23T22:01:27.097Z,51.42
2022-09-23T22:03:59.010Z,52.29
2022-09-23T22:06:27.630Z,51.63
2022-09-23T22:09:00.077Z,51.83
2022-09-23T22:11:48.086Z,51.68
2022-09-23T22:14:15.817Z,52.22
2022-09-23T22:16:43.238Z,51.81
2022-09-23T22:19:11.553Z,52.58
2022-09-23T22:21:40.358Z,52.34
2022-09-23T22:24:08.852Z,52.24
2022-09-23T22:26:45.558Z,52.58
2022-09-23T22:29:33.292Z,52.61
2022-09-23T22:32:20.026Z,52.48
2022-09-23T22:34:50.572Z,52.94
2022-09-23T22:37:26.232Z,53.22
2022-09-23T22:39:53.542Z,53.38
2022-09-23T22:42:23.368Z,53.32
2022-09-23T22:44:50.993Z,52.92
2022-09-23T22:47:18.597Z,52.97
2022-09-23T22:49:46.521Z,52.78
2022-09-23T22:52:16.071Z,52.93
2022-09-23T22:54:43.344Z,52.52
2022-09-23T22:57:10.979Z,51.94
2022-09-23T22:59:38.017Z,51.22
2022-09-23T23:02:06.611Z,52.10
2022-09-23T23:04:33.919Z,51.51
2022-09-23T23:07:00.502Z,51.77
2022-09-23T23:09:27.543Z,52.75
2022-09-23T23:11:55.452Z,52.57
2022-09-23T23:14:22.187Z,53.52
2022-09-23T23:16:48.782Z,53.67
2022-09-23T23:19:17.597Z,53.40
2022-09-23T23:21:45.297Z,53.45
2022-09-23T23:24:22.959Z,53.68
2022-09-23T23:26:50.915Z,53.42
2022-09-23T23:29:19.790Z,53.36
2022-09-23T23:31:46.882Z,53.45
2022-09-23T23:34:16.314Z,53.80
2022-09-23T23:36:44.324Z,52.97
2022-09-23T23:39:11.699Z,53.44
2022-09-23T23:41:39.560Z,53.26
2022-09-23T23:44:07.873Z,52.78
2022-09-23T23:46:36.554Z,53.16
2022-09-23T23:49:03.853Z,53.61
2022-09-23T23:51:31.018Z,53.53
2022-09-23T23:53:59.121Z,53.66
2022-09-23T23:56:27.285Z,53.55
2022-09-23T23:58:59.443Z,53.55
